Time;durP1;ratioP1;P1;durP2;ratioP2;P2;SDS_P1;SDS_P2;PMS_P1;PMS_P2;Temp;Humidity;BMP_temperature;BMP_pressure;BME280_temperature;BME280_humidity;BME280_pressure;Samples;Min_cycle;Max_cycle;Signal;HPM_P1;HPM_P2
2023/05/18 00:00:52;;;;;;;;;;;;;;;14.87;96.69;101298.38;5025056;28;19951;-81
2023/05/18 00:03:20;;;;;;;;;;;;;;;14.87;96.24;101304.56;5031493;28;19952;-81
2023/05/18 00:05:48;;;;;;;;;;;;;;;14.86;96.52;101296.72;5033959;28;19934;-81
2023/05/18 00:08:18;;;;;;;;;;;;;;;14.44;96.71;101230.31;5010359;28;20181;-81
2023/05/18 00:10:45;;;;;;;;;;;;;;;14.89;96.86;101296.41;5035078;28;19924;-81
2023/05/18 00:13:11;;;;;;;;;;;;;;;14.91;96.87;101297.13;5023853;28;19932;-79
2023/05/18 00:15:38;;;;;;;;;;;;;;;14.91;97.01;101291.78;5031818;28;20350;-82
2023/05/18 00:18:05;;;;;;;;;;;;;;;14.90;96.69;101298.97;5030735;28;20220;-80
2023/05/18 00:20:35;;;;;;;;;;;;;;;14.89;96.87;101302.59;5013513;28;19966;-80
2023/05/18 00:23:15;;;;;;;;;;;;;;;14.88;96.96;101306.28;5055396;28;19999;-80
2023/05/18 00:25:44;;;;;;;;;;;;;;;14.93;96.89;101297.81;5010099;28;19931;-81
2023/05/18 00:28:20;;;;;;;;;;;;;;;14.51;96.10;101236.75;4987098;28;20011;-80
2023/05/18 00:31:00;;;;;;;;;;;;;;;14.92;96.39;101304.13;5026511;28;19928;-79
2023/05/18 00:33:30;;;;;;;;;;;;;;;14.62;96.48;101258.00;5019413;28;20189;-80
2023/05/18 00:36:00;;;;;;;;;;;;;;;14.91;96.82;101302.47;5025180;28;19925;-80
2023/05/18 00:38:29;;;;;;;;;;;;;;;14.89;96.45;101301.75;5005174;28;20342;-80
2023/05/18 00:40:56;;;;;;;;;;;;;;;14.87;96.34;101298.38;5030113;28;20195;-78
2023/05/18 00:43:23;;;;;;;;;;;;;;;14.84;96.41;101304.88;5019247;28;20231;-80
2023/05/18 00:45:50;;;;;;;;;;;;;;;14.84;96.83;101309.38;5025313;28;20437;-80
2023/05/18 00:48:16;;;;;;;;;;;;;;;14.87;96.88;101303.75;5023768;28;19931;-80
2023/05/18 00:50:46;;;;;;;;;;;;;;;14.87;96.91;101304.56;5016993;28;20386;-80
2023/05/18 00:53:13;;;;;;;;;;;;;;;14.86;96.89;101302.91;4986530;28;20148;-79
2023/05/18 00:55:40;;;;;;;;;;;;;;;14.83;96.09;101299.66;5016641;28;20466;-81
2023/05/18 00:58:13;;;;;;;;;;;;;;;14.80;96.11;101298.13;5034008;28;20019;-78
2023/05/18 01:00:42;;;;;;;;;;;;;;;14.48;96.68;101251.25;5022505;28;20124;-81
2023/05/18 01:03:18;;;;;;;;;;;;;;;14.52;96.47;101262.50;5005701;28;20283;-81
2023/05/18 01:05:56;;;;;;;;;;;;;;;14.79;96.73;101306.31;4983460;28;20239;-81
2023/05/18 01:08:30;;;;;;;;;;;;;;;14.79;96.72;101309.00;4990789;28;19981;-81
2023/05/18 01:11:18;;;;;;;;;;;;;;;14.81;97.48;101301.66;5007405;28;19925;-81
2023/05/18 01:13:56;;;;;;;;;;;;;;;14.83;97.43;101311.22;4992299;28;20381;-80
2023/05/18 01:16:31;;;;;;;;;;;;;;;14.94;97.12;101311.00;5021988;28;19925;-81
2023/05/18 01:19:19;;;;;;;;;;;;;;;14.99;96.36;101307.91;5021866;28;19964;-81
2023/05/18 01:21:57;;;;;;;;;;;;;;;15.02;96.77;101307.59;5036039;28;19936;-79
2023/05/18 01:24:25;;;;;;;;;;;;;;;15.11;96.38;101312.06;5044386;28;19928;-80
2023/05/18 01:26:58;;;;;;;;;;;;;;;15.12;94.33;101316.44;5043218;28;20023;-79
2023/05/18 01:29:28;;;;;;;;;;;;;;;15.12;94.56;101310.22;5018424;28;19951;-79
2023/05/18 01:31:58;;;;;;;;;;;;;;;15.07;94.89;101318.72;5002767;28;19935;-81
2023/05/18 01:34:26;;;;;;;;;;;;;;;15.05;94.96;101318.03;5011373;28;19928;-81
2023/05/18 01:36:53;;;;;;;;;;;;;;;14.98;93.95;101322.28;5028791;28;19935;-81
2023/05/18 01:39:23;;;;;;;;;;;;;;;14.99;93.42;101317.75;5016107;28;19960;-82
2023/05/18 01:42:05;;;;;;;;;;;;;;;14.95;93.37;101318.06;5022651;28;20293;-81
2023/05/18 01:44:53;;;;;;;;;;;;;;;14.98;92.58;101316.06;5029186;28;19932;-81
2023/05/18 01:47:26;;;;;;;;;;;;;;;14.98;93.38;101327.63;5035726;28;20278;-82
2023/05/18 01:50:04;;;;;;;;;;;;;;;15.00;93.03;101325.66;5036523;28;19928;-81
2023/05/18 01:52:43;;;;;;;;;;;;;;;14.97;93.77;101323.25;5027118;28;19935;-83
2023/05/18 01:55:14;;;;;;;;;;;;;;;14.89;93.58;101321.31;5032446;28;20190;-83
2023/05/18 01:57:44;;;;;;;;;;;;;;;14.88;95.20;101324.13;5003020;28;20242;-83
2023/05/18 02:00:11;;;;;;;;;;;;;;;14.84;94.58;101320.06;5007991;28;20142;-83
2023/05/18 02:02:43;;;;;;;;;;;;;;;14.81;95.72;101320.38;5028334;28;19935;-82
2023/05/18 02:05:12;;;;;;;;;;;;;;;14.77;95.47;101313.63;5023823;28;19925;-82
2023/05/18 02:07:39;;;;;;;;;;;;;;;14.75;95.28;101311.94;5040683;28;20109;-82
2023/05/18 02:10:06;;;;;;;;;;;;;;;14.71;95.81;101310.56;5049190;28;19925;-82
2023/05/18 02:12:32;;;;;;;;;;;;;;;14.71;95.80;101310.56;5045807;28;20432;-83
2023/05/18 02:15:04;;;;;;;;;;;;;;;14.69;96.04;101301.84;5037705;28;19924;-82
2023/05/18 02:17:37;;;;;;;;;;;;;;;14.67;96.36;101303.81;5042038;28;19928;-82
2023/05/18 02:20:07;;;;;;;;;;;;;;;14.67;96.25;101309.16;5041876;28;20453;-82
2023/05/18 02:22:35;;;;;;;;;;;;;;;14.31;96.42;101249.34;5051302;28;20413;-83
2023/05/18 02:25:03;;;;;;;;;;;;;;;14.64;96.36;101298.78;5057147;28;20116;-83
2023/05/18 02:27:34;;;;;;;;;;;;;;;14.64;96.80;101298.78;5051282;28;19925;-82
2023/05/18 02:30:03;;;;;;;;;;;;;;;14.62;96.49;101302.56;5043277;28;19999;-83
2023/05/18 02:32:37;;;;;;;;;;;;;;;14.60;96.98;101294.69;5034574;28;20265;-83
2023/05/18 02:35:06;;;;;;;;;;;;;;;14.57;96.85;101297.66;5041190;28;19925;-82
2023/05/18 02:37:33;;;;;;;;;;;;;;;14.54;97.01;101297.97;5040384;28;19979;-80
2023/05/18 02:40:02;;;;;;;;;;;;;;;14.52;96.46;101284.72;5017743;28;19929;-81
2023/05/18 02:42:29;;;;;;;;;;;;;;;14.55;96.82;101290.78;5030585;28;20581;-81
2023/05/18 02:44:56;;;;;;;;;;;;;;;14.52;96.92;101292.72;5028012;28;20018;-84
2023/05/18 02:47:24;;;;;;;;;;;;;;;14.55;97.23;101288.13;5023232;28;19931;-81
2023/05/18 02:49:56;;;;;;;;;;;;;;;14.19;97.22;101237.97;5026731;28;19978;-82
2023/05/18 02:52:28;;;;;;;;;;;;;;;14.48;97.17;101290.47;5041737;28;19924;-83
2023/05/18 02:54:55;;;;;;;;;;;;;;;14.44;97.20;101291.75;5038253;28;19928;-82
2023/05/18 02:57:21;;;;;;;;;;;;;;;14.43;97.69;101290.06;5028906;28;19970;-81
2023/05/18 02:59:48;;;;;;;;;;;;;;;14.41;97.15;101297.38;5026610;28;19924;-83
2023/05/18 03:02:15;;;;;;;;;;;;;;;14.38;97.52;101303.03;5027255;28;19932;-82
2023/05/18 03:04:42;;;;;;;;;;;;;;;14.40;98.11;101306.41;5025142;28;19979;-82
2023/05/18 03:07:12;;;;;;;;;;;;;;;13.99;98.53;101236.34;5025498;28;19978;-82
2023/05/18 03:09:41;;;;;;;;;;;;;;;14.48;98.94;101309.19;5020410;28;19924;-82
2023/05/18 03:12:08;;;;;;;;;;;;;;;14.50;99.04;101307.22;5021711;28;20133;-81
2023/05/18 03:14:35;;;;;;;;;;;;;;;14.54;99.38;101305.97;5027136;28;19982;-83
2023/05/18 03:17:04;;;;;;;;;;;;;;;14.60;98.35;101304.53;5031314;28;20773;-81
2023/05/18 03:19:33;;;;;;;;;;;;;;;14.67;98.28;101297.63;5024249;28;19924;-83
2023/05/18 03:22:00;;;;;;;;;;;;;;;14.63;96.86;101302.41;5029892;28;20019;-82
2023/05/18 03:24:29;;;;;;;;;;;;;;;14.63;97.14;101305.09;5045650;28;19928;-81
2023/05/18 03:26:55;;;;;;;;;;;;;;;14.61;97.32;101308.88;5040579;28;20263;-83
2023/05/18 03:29:22;;;;;;;;;;;;;;;14.59;97.62;101306.38;5039154;28;20780;-80
2023/05/18 03:31:49;;;;;;;;;;;;;;;14.58;97.05;101307.34;5033353;28;20689;-80
2023/05/18 03:34:17;;;;;;;;;;;;;;;14.58;96.42;101310.03;5027133;28;20045;-81
2023/05/18 03:36:51;;;;;;;;;;;;;;;14.63;95.85;101313.09;5026585;28;19956;-81
2023/05/18 03:39:17;;;;;;;;;;;;;;;14.62;94.49;101313.25;5018611;28;19951;-81
2023/05/18 03:41:44;;;;;;;;;;;;;;;14.75;94.29;101306.59;5031454;28;19924;-81
2023/05/18 03:44:10;;;;;;;;;;;;;;;14.81;93.60;101307.00;5032883;28;19932;-80
2023/05/18 03:46:37;;;;;;;;;;;;;;;14.69;92.92;101312.53;5032261;28;19950;-80
2023/05/18 03:49:06;;;;;;;;;;;;;;;14.62;93.30;101319.44;5016187;28;20368;-80
2023/05/18 03:51:33;;;;;;;;;;;;;;;14.55;92.82;101310.31;5026579;28;20015;-82
2023/05/18 03:54:02;;;;;;;;;;;;;;;14.18;92.85;101273.69;5024243;28;19928;-81
2023/05/18 03:56:30;;;;;;;;;;;;;;;14.43;92.65;101322.13;5025774;28;20342;-80
2023/05/18 03:58:57;;;;;;;;;;;;;;;14.37;94.17;101323.56;5020715;28;19928;-81
2023/05/18 04:01:24;;;;;;;;;;;;;;;14.32;93.93;101320.44;5029784;28;20305;-79
2023/05/18 04:03:55;;;;;;;;;;;;;;;14.24;94.33;101323.84;5031429;28;19935;-81
2023/05/18 04:06:26;;;;;;;;;;;;;;;14.17;94.21;101332.56;5011192;28;19924;-81
2023/05/18 04:09:03;;;;;;;;;;;;;;;14.16;94.76;101331.72;5002484;28;19935;-82
2023/05/18 04:11:30;;;;;;;;;;;;;;;14.13;94.96;101336.50;5016792;28;20131;-80
2023/05/18 04:13:59;;;;;;;;;;;;;;;14.11;95.43;101334.81;5016775;28;20279;-79
2023/05/18 04:16:27;;;;;;;;;;;;;;;14.08;95.37;101342.28;5013726;28;20492;-79
2023/05/18 04:18:56;;;;;;;;;;;;;;;14.04;95.03;101338.22;5033859;28;19932;-81
2023/05/18 04:21:23;;;;;;;;;;;;;;;14.02;95.04;101349.00;5043823;28;20378;-79
2023/05/18 04:23:49;;;;;;;;;;;;;;;14.03;94.62;101356.06;5050343;28;19928;-81
2023/05/18 04:26:18;;;;;;;;;;;;;;;13.77;95.04;101314.88;5050303;28;19978;-82
2023/05/18 04:28:50;;;;;;;;;;;;;;;13.97;95.45;101358.44;5016560;28;19925;-80
2023/05/18 04:31:16;;;;;;;;;;;;;;;13.98;95.73;101360.09;5006696;28;20312;-80
2023/05/18 04:33:45;;;;;;;;;;;;;;;14.00;96.12;101363.50;5012903;28;19929;-83
2023/05/18 04:36:12;;;;;;;;;;;;;;;14.01;95.92;101362.53;5054147;28;19936;-81
2023/05/18 04:38:39;;;;;;;;;;;;;;;14.02;95.85;101366.88;5001195;28;19983;-80
2023/05/18 04:41:07;;;;;;;;;;;;;;;14.01;96.13;101370.53;5067216;28;20405;-83
2023/05/18 04:43:35;;;;;;;;;;;;;;;13.98;96.32;101365.44;5038330;28;19930;-81
2023/05/18 04:46:02;;;;;;;;;;;;;;;13.98;96.34;101371.66;5031947;28;20144;-81
2023/05/18 04:48:29;;;;;;;;;;;;;;;13.97;96.47;101375.28;5037409;28;20329;-79
2023/05/18 04:50:55;;;;;;;;;;;;;;;13.96;96.47;101383.47;5030084;28;20319;-80
2023/05/18 04:53:22;;;;;;;;;;;;;;;13.99;95.96;101389.34;5056205;28;19962;-80
2023/05/18 04:55:49;;;;;;;;;;;;;;;13.98;95.92;101390.34;5045957;28;19924;-80
2023/05/18 04:58:15;;;;;;;;;;;;;;;13.98;96.22;101386.81;5040303;28;19928;-80
2023/05/18 05:00:42;;;;;;;;;;;;;;;14.01;96.62;101391.88;5034690;28;20507;-80
2023/05/18 05:03:12;;;;;;;;;;;;;;;14.03;96.67;101396.09;5041215;28;19925;-82
2023/05/18 05:05:41;;;;;;;;;;;;;;;14.07;96.71;101393.97;5031971;28;19946;-80
2023/05/18 05:08:07;;;;;;;;;;;;;;;14.10;96.13;101386.56;5040790;28;20461;-81
2023/05/18 05:10:34;;;;;;;;;;;;;;;14.13;96.56;101388.09;5037527;28;20014;-83
2023/05/18 05:13:00;;;;;;;;;;;;;;;14.18;96.42;101393.03;5026930;28;19931;-80
2023/05/18 05:15:27;;;;;;;;;;;;;;;14.23;96.06;101391.59;5036543;28;20275;-80
2023/05/18 05:17:54;;;;;;;;;;;;;;;14.27;94.30;101397.50;5033010;28;20465;-80
2023/05/18 05:20:23;;;;;;;;;;;;;;;14.28;93.92;101393.84;5033036;28;20332;-79
2023/05/18 05:22:50;;;;;;;;;;;;;;;14.30;94.83;101392.72;5060701;28;20362;-80
2023/05/18 05:25:16;;;;;;;;;;;;;;;14.32;95.55;101393.44;5062529;28;19928;-81
2023/05/18 05:27:43;;;;;;;;;;;;;;;14.37;95.52;101392.16;5041443;28;20263;-80
2023/05/18 05:30:10;;;;;;;;;;;;;;;14.39;94.82;101391.00;5021829;28;19924;-80
2023/05/18 05:32:36;;;;;;;;;;;;;;;14.43;94.19;101397.75;5025669;28;19924;-81
2023/05/18 05:35:06;;;;;;;;;;;;;;;14.46;92.49;101399.31;5041342;28;19924;-79
2023/05/18 05:37:33;;;;;;;;;;;;;;;14.49;92.23;101393.69;5030058;28;20705;-81
2023/05/18 05:40:04;;;;;;;;;;;;;;;14.57;93.78;101396.53;5020706;28;19924;-80
2023/05/18 05:42:31;;;;;;;;;;;;;;;14.60;93.22;101393.56;5048469;28;19924;-81
2023/05/18 05:44:58;;;;;;;;;;;;;;;14.65;91.48;101401.97;5044617;28;20171;-79
2023/05/18 05:47:28;;;;;;;;;;;;;;;14.40;91.67;101343.81;5023073;28;19929;-81
2023/05/18 05:50:02;;;;;;;;;;;;;;;14.76;92.23;101392.97;5017886;28;20050;-80
2023/05/18 05:52:36;;;;;;;;;;;;;;;14.78;90.87;101387.47;5033197;28;20011;-80
2023/05/18 05:55:03;;;;;;;;;;;;;;;14.83;90.10;101395.91;5051565;28;20424;-80
2023/05/18 05:57:32;;;;;;;;;;;;;;;14.82;90.88;101407.59;5051172;28;20215;-81
2023/05/18 05:59:58;;;;;;;;;;;;;;;14.84;89.43;101401.09;5018064;28;20014;-78
2023/05/18 06:02:25;;;;;;;;;;;;;;;14.86;88.83;101406.31;5032523;28;20430;-80
2023/05/18 06:04:52;;;;;;;;;;;;;;;14.60;89.83;101361.50;5018709;28;19924;-81
2023/05/18 06:07:19;;;;;;;;;;;;;;;14.93;89.29;101418.13;5049505;28;19925;-78
2023/05/18 06:09:49;;;;;;;;;;;;;;;14.95;87.24;101418.78;5025042;28;19924;-79
2023/05/18 06:12:15;;;;;;;;;;;;;;;14.98;88.47;101423.00;5042297;28;19978;-79
2023/05/18 06:14:42;;;;;;;;;;;;;;;15.05;90.19;101418.75;5037873;28;20721;-79
2023/05/18 06:17:08;;;;;;;;;;;;;;;15.06;88.48;101423.97;5017307;28;19935;-79
2023/05/18 06:19:41;;;;;;;;;;;;;;;15.12;88.52;101423.41;4999891;28;20409;-79
2023/05/18 06:22:12;;;;;;;;;;;;;;;15.16;89.07;101432.81;5053089;28;20372;-78
2023/05/18 06:24:39;;;;;;;;;;;;;;;15.20;87.63;101427.19;5027646;28;19924;-79
2023/05/18 06:27:07;;;;;;;;;;;;;;;15.25;87.70;101427.59;5035601;28;20265;-78
2023/05/18 06:29:33;;;;;;;;;;;;;;;15.32;87.83;101423.34;5026172;28;20443;-78
2023/05/18 06:32:01;;;;;;;;;;;;;;;15.35;86.63;101425.72;5047794;28;20305;-80
2023/05/18 06:34:27;;;;;;;;;;;;;;;15.36;85.85;101427.38;5041550;28;19928;-77
2023/05/18 06:36:54;;;;;;;;;;;;;;;15.08;85.82;101375.72;5036929;28;20592;-79
2023/05/18 06:39:21;;;;;;;;;;;;;;;15.42;85.02;101431.31;5037654;28;19934;-78
2023/05/18 06:41:50;;;;;;;;;;;;;;;15.46;83.99;101432.69;5050126;28;20092;-81
2023/05/18 06:44:17;;;;;;;;;;;;;;;15.48;84.28;101422.69;5046321;28;20362;-77
2023/05/18 06:46:45;;;;;;;;;;;;;;;15.52;85.16;101421.41;5060671;28;19969;-79
2023/05/18 06:49:13;;;;;;;;;;;;;;;15.25;84.38;101372.25;5046743;28;19932;-80
2023/05/18 06:51:42;;;;;;;;;;;;;;;15.62;83.08;101427.53;5046754;28;19928;-80
2023/05/18 06:54:13;;;;;;;;;;;;;;;15.71;83.75;101425.84;5058824;28;19924;-81
2023/05/18 06:56:40;;;;;;;;;;;;;;;15.77;83.52;101422.56;5038549;28;20296;-79
2023/05/18 06:59:07;;;;;;;;;;;;;;;15.88;84.29;101417.00;5055237;28;19973;-79
2023/05/18 07:01:33;;;;;;;;;;;;;;;15.81;84.54;101421.25;5063003;28;19977;-79
2023/05/18 07:04:01;;;;;;;;;;;;;;;15.89;86.51;101423.19;5043492;28;20612;-81
2023/05/18 07:06:33;;;;;;;;;;;;;;;15.63;85.82;101374.84;5031020;28;19932;-79
2023/05/18 07:09:07;;;;;;;;;;;;;;;15.96;85.89;101422.44;5050858;28;19924;-80
2023/05/18 07:11:34;;;;;;;;;;;;;;;15.96;85.41;101418.91;5051564;28;19924;-79
2023/05/18 07:14:00;;;;;;;;;;;;;;;15.88;84.77;101419.66;5025720;28;19928;-80
2023/05/18 07:16:34;;;;;;;;;;;;;;;15.60;84.71;101366.13;5007111;28;19928;-82
2023/05/18 07:19:04;;;;;;;;;;;;;;;15.96;85.45;101419.75;5052995;28;19924;-82
2023/05/18 07:21:33;;;;;;;;;;;;;;;15.96;82.16;101414.38;5043022;28;20228;-80
2023/05/18 07:24:11;;;;;;;;;;;;;;;16.01;82.58;101417.44;5017823;28;20343;-80
2023/05/18 07:26:40;;;;;;;;;;;;;;;15.83;82.16;101376.44;5026275;28;19924;-82
2023/05/18 07:29:07;;;;;;;;;;;;;;;15.88;80.69;101360.75;5058029;28;19924;-81
2023/05/18 07:31:39;;;;;;;;;;;;;;;16.18;79.09;101402.38;5056813;28;19951;-80
2023/05/18 07:34:10;;;;;;;;;;;;;;;16.21;78.91;101404.78;5034060;28;20007;-81
2023/05/18 07:36:41;;;;;;;;;;;;;;;16.29;77.10;101403.13;5039171;28;20054;-79
2023/05/18 07:39:07;;;;;;;;;;;;;;;16.34;79.31;101401.69;5010551;28;20438;-81
2023/05/18 07:41:36;;;;;;;;;;;;;;;16.19;79.24;101357.69;5013602;28;19928;-83
2023/05/18 07:44:03;;;;;;;;;;;;;;;16.44;78.16;101407.81;5008856;28;19925;-80
2023/05/18 07:46:30;;;;;;;;;;;;;;;16.41;76.81;101402.75;5004417;28;20164;-81
2023/05/18 07:48:56;;;;;;;;;;;;;;;16.49;76.79;101401.13;5013609;28;20014;-80
2023/05/18 07:51:23;;;;;;;;;;;;;;;16.51;76.19;101408.03;5049227;28;19924;-79
2023/05/18 07:53:53;;;;;;;;;;;;;;;16.55;74.89;101413.91;5041147;28;19952;-81
2023/05/18 07:56:23;;;;;;;;;;;;;;;16.68;78.07;101411.66;5055138;28;19924;-80
2023/05/18 07:58:52;;;;;;;;;;;;;;;16.75;75.06;101415.41;5018994;28;19959;-80
2023/05/18 08:01:26;;;;;;;;;;;;;;;16.68;74.24;101382.19;5047550;28;19924;-82
2023/05/18 08:03:53;;;;;;;;;;;;;;;17.03;71.49;101423.31;5058405;28;19928;-83
2023/05/18 08:06:22;;;;;;;;;;;;;;;16.92;71.01;101426.25;5037787;28;20227;-81
2023/05/18 08:08:52;;;;;;;;;;;;;;;16.92;71.46;101426.25;5063642;28;20374;-79
2023/05/18 08:11:21;;;;;;;;;;;;;;;17.07;73.19;101432.75;5052867;28;19928;-79
2023/05/18 08:13:48;;;;;;;;;;;;;;;17.06;70.68;101434.59;5040248;28;19924;-80
2023/05/18 08:16:15;;;;;;;;;;;;;;;17.10;70.41;101437.78;5035266;28;19924;-81
2023/05/18 08:18:41;;;;;;;;;;;;;;;17.20;72.19;101446.56;5037210;28;19947;-80
2023/05/18 08:21:08;;;;;;;;;;;;;;;17.30;71.51;101441.91;5033850;28;19925;-80
2023/05/18 08:23:38;;;;;;;;;;;;;;;17.42;70.06;101445.16;5040106;28;20074;-80
2023/05/18 08:26:06;;;;;;;;;;;;;;;17.64;69.30;101438.34;5055066;28;20014;-80
2023/05/18 08:28:38;;;;;;;;;;;;;;;17.68;69.01;101445.09;5064878;28;19977;-81
2023/05/18 08:31:11;;;;;;;;;;;;;;;17.76;69.30;101441.59;5061356;28;19924;-80
2023/05/18 08:33:38;;;;;;;;;;;;;;;17.78;68.44;101444.97;5061514;28;19951;-81
2023/05/18 08:36:07;;;;;;;;;;;;;;;17.53;69.07;101393.03;5044962;28;19935;-81
2023/05/18 08:38:34;;;;;;;;;;;;;;;17.86;67.54;101446.84;5020786;28;20614;-82
2023/05/18 08:41:04;;;;;;;;;;;;;;;17.81;69.09;101443.81;5009359;28;20189;-83
2023/05/18 08:43:42;;;;;;;;;;;;;;;17.77;69.15;101442.44;5008822;28;20257;-80
2023/05/18 08:46:35;;;;;;;;;;;;;;;17.79;68.96;101441.28;5050155;28;20031;-80
2023/05/18 08:49:11;;;;;;;;;;;;;;;17.88;68.39;101436.78;5031395;28;19986;-81
2023/05/18 08:51:47;;;;;;;;;;;;;;;18.03;68.58;101432.44;5022299;28;20165;-82
2023/05/18 08:54:24;;;;;;;;;;;;;;;18.02;68.09;101438.84;5029651;28;20525;-82
2023/05/18 08:56:57;;;;;;;;;;;;;;;18.07;66.46;101436.50;4997860;28;20395;-79
2023/05/18 08:59:30;;;;;;;;;;;;;;;17.83;67.11;101388.94;5034589;28;20007;-82
2023/05/18 09:01:57;;;;;;;;;;;;;;;18.30;63.28;101434.03;5052471;28;20298;-84
2023/05/18 09:04:25;;;;;;;;;;;;;;;18.48;61.30;101431.16;5059367;28;20667;-83
2023/05/18 09:06:53;;;;;;;;;;;;;;;18.26;60.91;101437.22;5056430;28;19936;-82
2023/05/18 09:09:20;;;;;;;;;;;;;;;18.17;63.48;101447.09;5035237;28;20222;-82
2023/05/18 09:11:50;;;;;;;;;;;;;;;18.05;64.19;101448.41;5052412;28;20680;-82
2023/05/18 09:14:25;;;;;;;;;;;;;;;18.09;65.06;101452.47;5019696;28;19931;-82
2023/05/18 09:16:52;;;;;;;;;;;;;;;18.01;64.27;101455.97;5012347;28;19983;-82
2023/05/18 09:19:19;;;;;;;;;;;;;;;18.03;65.18;101453.94;5011834;28;19933;-80
2023/05/18 09:21:46;;;;;;;;;;;;;;;18.10;65.07;101452.28;5051124;28;19931;-82
2023/05/18 09:24:14;;;;;;;;;;;;;;;18.24;64.61;101455.34;5062783;28;19924;-81
2023/05/18 09:26:40;;;;;;;;;;;;;;;18.26;62.50;101447.97;5043080;28;20286;-82
2023/05/18 09:29:20;;;;;;;;;;;;;;;18.46;60.37;101449.31;5058156;28;19932;-82
2023/05/18 09:31:47;;;;;;;;;;;;;;;18.51;60.22;101446.94;5058901;28;20071;-80
2023/05/18 09:34:14;;;;;;;;;;;;;;;18.55;59.21;101461.75;5039612;28;20587;-82
2023/05/18 09:36:48;;;;;;;;;;;;;;;18.58;61.48;101453.34;5021073;28;20002;-82
2023/05/18 09:39:19;;;;;;;;;;;;;;;18.42;63.54;101410.31;5005134;28;20619;-83
2023/05/18 09:41:53;;;;;;;;;;;;;;;18.62;61.72;101453.84;5017450;28;19925;-81
2023/05/18 09:44:27;;;;;;;;;;;;;;;18.61;63.81;101452.16;5045050;28;20151;-81
2023/05/18 09:46:55;;;;;;;;;;;;;;;18.55;60.36;101452.84;5036085;28;19924;-81
2023/05/18 09:49:22;;;;;;;;;;;;;;;18.56;62.46;101454.50;5040328;28;19932;-83
2023/05/18 09:51:48;;;;;;;;;;;;;;;18.73;61.60;101449.97;5061117;28;19931;-81
2023/05/18 09:54:15;;;;;;;;;;;;;;;18.80;63.38;101456.38;5056737;28;20309;-81
2023/05/18 09:56:46;;;;;;;;;;;;;;;18.77;61.95;101454.88;5039556;28;20189;-81
2023/05/18 09:59:36;;;;;;;;;;;;;;;18.85;61.64;101454.03;5063857;28;20014;-80
2023/05/18 10:02:10;;;;;;;;;;;;;;;18.78;62.49;101461.09;5056780;28;20005;-82
2023/05/18 10:04:41;;;;;;;;;;;;;;;18.73;61.26;101458.03;5050538;28;19936;-81
2023/05/18 10:07:09;;;;;;;;;;;;;;;18.81;62.20;101460.75;5024694;28;19928;-81
2023/05/18 10:09:43;;;;;;;;;;;;;;;18.92;62.24;101454.19;5033288;28;19998;-82
2023/05/18 10:12:18;;;;;;;;;;;;;;;18.85;61.18;101454.03;5037530;28;20513;-81
2023/05/18 10:14:50;;;;;;;;;;;;;;;18.61;60.34;101411.00;5029523;28;20279;-81
2023/05/18 10:17:26;;;;;;;;;;;;;;;18.83;59.64;101450.66;5031847;28;19928;-82
2023/05/18 10:19:55;;;;;;;;;;;;;;;18.89;61.06;101452.69;5024733;28;19925;-81
2023/05/18 10:22:23;;;;;;;;;;;;;;;18.97;60.08;101458.03;5017393;28;20045;-82
2023/05/18 10:24:53;;;;;;;;;;;;;;;18.98;60.72;101459.75;5058112;28;19924;-80
2023/05/18 10:27:23;;;;;;;;;;;;;;;19.00;60.17;101463.09;5032349;28;20406;-81
2023/05/18 10:29:51;;;;;;;;;;;;;;;18.92;59.57;101457.72;5034571;28;20220;-80
2023/05/18 10:32:19;;;;;;;;;;;;;;;18.95;60.99;101454.69;5067306;28;19950;-81
2023/05/18 10:34:51;;;;;;;;;;;;;;;19.04;60.39;101454.69;5067507;28;20228;-80
2023/05/18 10:37:21;;;;;;;;;;;;;;;19.07;61.66;101455.16;5026950;28;20556;-81
2023/05/18 10:39:49;;;;;;;;;;;;;;;19.11;60.22;101459.19;5051663;28;20362;-81
2023/05/18 10:42:17;;;;;;;;;;;;;;;19.12;61.16;101457.34;5042769;28;19924;-81
2023/05/18 10:44:46;;;;;;;;;;;;;;;19.08;61.74;101456.00;5029852;28;19931;-80
2023/05/18 10:47:13;;;;;;;;;;;;;;;19.02;61.08;101452.16;5064068;28;20140;-81
2023/05/18 10:49:47;;;;;;;;;;;;;;;18.93;59.66;101451.34;5053063;28;20329;-80
2023/05/18 10:52:15;;;;;;;;;;;;;;;18.93;60.43;101448.66;5056909;28;19969;-81
2023/05/18 10:54:45;;;;;;;;;;;;;;;18.92;62.15;101448.81;5060825;28;19935;-82
2023/05/18 10:57:21;;;;;;;;;;;;;;;18.93;60.94;101451.34;5061058;28;20421;-81
2023/05/18 10:59:48;;;;;;;;;;;;;;;18.89;60.33;101443.78;5054956;28;20204;-81
2023/05/18 11:02:17;;;;;;;;;;;;;;;18.84;60.15;101448.84;5056289;28;20335;-81
2023/05/18 11:04:45;;;;;;;;;;;;;;;18.76;60.62;101449.66;5042509;28;19935;-79
2023/05/18 11:07:12;;;;;;;;;;;;;;;18.89;60.91;101451.84;5065429;28;20313;-81
2023/05/18 11:09:43;;;;;;;;;;;;;;;18.88;60.44;101442.91;5042443;28;19924;-82
2023/05/18 11:12:23;;;;;;;;;;;;;;;18.97;60.24;101447.28;5053024;28;19928;-80
2023/05/18 11:14:53;;;;;;;;;;;;;;;18.39;60.03;101348.84;5054880;28;19928;-80
2023/05/18 11:17:21;;;;;;;;;;;;;;;19.00;61.40;101438.88;5035448;28;20133;-79
2023/05/18 11:20:11;;;;;;;;;;;;;;;19.02;61.09;101441.38;5029024;28;19938;-80
2023/05/18 11:22:44;;;;;;;;;;;;;;;19.12;60.35;101435.81;5031475;28;19924;-82
2023/05/18 11:25:23;;;;;;;;;;;;;;;19.13;58.31;101437.50;5025484;28;19929;-81
2023/05/18 11:27:52;;;;;;;;;;;;;;;19.16;58.46;101435.31;5042012;28;19931;-81
2023/05/18 11:30:28;;;;;;;;;;;;;;;19.28;57.50;101434.94;5041177;28;19978;-81
2023/05/18 11:33:16;;;;;;;;;;;;;;;19.29;57.04;101423.97;5067184;28;19935;-80
2023/05/18 11:35:55;;;;;;;;;;;;;;;19.40;55.85;101426.31;5044786;28;19947;-81
2023/05/18 11:38:43;;;;;;;;;;;;;;;19.50;57.15;101427.97;5060063;28;20353;-81
2023/05/18 11:41:25;;;;;;;;;;;;;;;19.61;56.58;101422.16;5055802;28;19924;-82
2023/05/18 11:44:08;;;;;;;;;;;;;;;19.31;56.27;101381.56;5056585;28;20015;-84
2023/05/18 11:46:50;;;;;;;;;;;;;;;19.64;56.44;101419.13;5063264;28;20430;-82
2023/05/18 11:49:17;;;;;;;;;;;;;;;19.68;58.02;101423.16;5058227;28;19924;-81
2023/05/18 11:52:02;;;;;;;;;;;;;;;19.69;56.45;101418.66;5060677;28;20434;-82
2023/05/18 11:54:33;;;;;;;;;;;;;;;19.77;56.38;101411.34;5051729;28;20132;-82
2023/05/18 11:57:01;;;;;;;;;;;;;;;19.85;56.08;101414.00;5048967;28;20011;-83
2023/05/18 11:59:39;;;;;;;;;;;;;;;19.96;55.29;101411.91;5062638;28;19924;-82
2023/05/18 12:02:10;;;;;;;;;;;;;;;20.11;56.40;101409.28;5063376;28;20537;-83
2023/05/18 12:04:49;;;;;;;;;;;;;;;20.17;55.94;101411.25;5064921;28;20092;-82
2023/05/18 12:07:20;;;;;;;;;;;;;;;20.19;54.67;101410.03;5071849;28;19931;-81
2023/05/18 12:09:48;;;;;;;;;;;;;;;20.14;55.03;101412.44;5044120;28;20262;-82
2023/05/18 12:12:22;;;;;;;;;;;;;;;19.91;55.32;101357.72;5063280;28;19924;-83
2023/05/18 12:14:54;;;;;;;;;;;;;;;20.16;57.01;101405.03;5052974;28;20230;-82
2023/05/18 12:17:23;;;;;;;;;;;;;;;20.22;55.71;101408.84;5053714;28;19979;-83
2023/05/18 12:19:50;;;;;;;;;;;;;;;20.20;55.36;101400.97;5029265;28;19939;-81
2023/05/18 12:22:20;;;;;;;;;;;;;;;20.29;55.37;101409.78;5051795;28;19951;-83
2023/05/18 12:24:52;;;;;;;;;;;;;;;20.38;55.32;101402.50;5033454;28;19931;-81
2023/05/18 12:27:23;;;;;;;;;;;;;;;20.00;54.51;101357.47;5031146;28;20195;-81
2023/05/18 12:29:50;;;;;;;;;;;;;;;20.21;55.26;101396.41;5061392;28;20736;-82
2023/05/18 12:32:21;;;;;;;;;;;;;;;20.25;55.88;101401.25;5062551;28;20439;-81
2023/05/18 12:34:51;;;;;;;;;;;;;;;20.18;54.79;101396.75;5027342;28;20053;-81
2023/05/18 12:37:22;;;;;;;;;;;;;;;20.03;55.07;101400.22;5030167;28;19928;-80
2023/05/18 12:40:03;;;;;;;;;;;;;;;20.04;56.91;101393.81;5053888;28;19932;-80
2023/05/18 12:42:35;;;;;;;;;;;;;;;20.01;56.00;101396.03;5027799;28;20300;-80
2023/05/18 12:45:05;;;;;;;;;;;;;;;19.96;56.21;101398.44;5062391;28;20401;-80
2023/05/18 12:47:39;;;;;;;;;;;;;;;20.10;56.11;101392.28;5042219;28;19924;-81
2023/05/18 12:50:06;;;;;;;;;;;;;;;20.18;54.54;101397.59;5031398;28;20096;-81